createdAt,value
2019-03-13T00:02:27.968Z,11.40
2019-03-13T00:04:56.640Z,11.30
2019-03-13T00:07:25.435Z,11.40
2019-03-13T00:09:55.150Z,11.40
2019-03-13T00:12:23.881Z,11.30
2019-03-13T00:14:52.641Z,11.40
2019-03-13T00:17:21.284Z,11.60
2019-03-13T00:19:50.014Z,11.50
2019-03-13T00:22:18.795Z,11.50
2019-03-13T00:24:47.567Z,11.30
2019-03-13T00:27:16.225Z,11.30
2019-03-13T00:29:44.933Z,11.30
2019-03-13T00:32:14.284Z,11.60
2019-03-13T00:34:52.508Z,11.50
2019-03-13T00:37:23.681Z,11.40
2019-03-13T00:39:52.428Z,11.60
2019-03-13T00:42:21.141Z,11.60
2019-03-13T00:44:49.984Z,11.70
2019-03-13T00:47:21.234Z,11.70
2019-03-13T00:49:49.982Z,11.50
2019-03-13T00:52:19.047Z,11.30
2019-03-13T00:54:47.695Z,11.20
2019-03-13T00:57:16.479Z,11.00
2019-03-13T00:59:45.224Z,10.90
2019-03-13T01:02:15.571Z,10.90
2019-03-13T01:05:02.340Z,10.90
2019-03-13T01:07:31.095Z,10.90
2019-03-13T01:09:59.832Z,10.80
2019-03-13T01:12:28.558Z,10.90
2019-03-13T01:14:57.762Z,11.20
2019-03-13T01:17:26.462Z,11.20
2019-03-13T01:19:55.215Z,11.00
2019-03-13T01:22:23.852Z,10.90
2019-03-13T01:24:52.447Z,10.80
2019-03-13T01:27:21.125Z,10.60
2019-03-13T01:29:49.856Z,11.00
2019-03-13T01:32:20.185Z,11.30
2019-03-13T01:34:53.304Z,11.40
2019-03-13T01:37:22.704Z,11.60
2019-03-13T01:39:51.447Z,11.50
2019-03-13T01:42:20.198Z,11.60
2019-03-13T01:44:48.837Z,11.40
2019-03-13T01:47:17.994Z,11.10
2019-03-13T01:49:46.731Z,10.70
2019-03-13T01:52:15.462Z,10.50
2019-03-13T01:54:44.220Z,10.40
2019-03-13T01:57:13.927Z,10.30
2019-03-13T01:59:42.697Z,10.30
2019-03-13T02:02:11.450Z,10.30
2019-03-13T02:04:40.169Z,10.30
2019-03-13T02:07:08.854Z,10.10
2019-03-13T02:09:38.913Z,10.00
2019-03-13T02:12:07.642Z,9.90
2019-03-13T02:14:39.412Z,9.80
2019-03-13T02:17:08.125Z,9.60
2019-03-13T02:19:36.872Z,9.40
2019-03-13T02:22:06.626Z,9.30
2019-03-13T02:24:35.306Z,9.20
2019-03-13T02:27:04.590Z,9.20
2019-03-13T02:29:33.350Z,9.30
2019-03-13T02:32:02.063Z,9.20
2019-03-13T02:34:30.798Z,9.10
2019-03-13T02:36:59.567Z,8.60
2019-03-13T02:39:28.322Z,8.30
2019-03-13T02:41:58.695Z,8.40
2019-03-13T02:44:27.364Z,8.60
2019-03-13T02:46:56.122Z,8.70
2019-03-13T02:49:24.802Z,8.70
2019-03-13T02:51:56.614Z,8.90
2019-03-13T02:54:25.460Z,8.90
2019-03-13T02:56:54.222Z,8.90
2019-03-13T02:59:24.103Z,8.90
2019-03-13T03:02:04.134Z,8.90
2019-03-13T03:04:32.814Z,9.00
2019-03-13T03:07:04.954Z,9.00
2019-03-13T03:09:33.656Z,8.90
2019-03-13T03:12:02.405Z,8.80
2019-03-13T03:14:31.205Z,8.80
2019-03-13T03:16:59.933Z,8.90
2019-03-13T03:19:28.687Z,9.10
2019-03-13T03:21:57.402Z,9.40
2019-03-13T03:24:26.155Z,9.40
2019-03-13T03:26:54.956Z,9.80
2019-03-13T03:29:23.678Z,10.00
2019-03-13T03:31:52.443Z,10.00
2019-03-13T03:34:21.150Z,10.00
2019-03-13T03:36:49.893Z,10.00
2019-03-13T03:39:18.640Z,10.00
2019-03-13T03:41:47.406Z,9.90
2019-03-13T03:44:16.130Z,9.90
2019-03-13T03:46:44.871Z,9.60
2019-03-13T03:49:13.622Z,9.50
2019-03-13T03:51:42.356Z,9.20
2019-03-13T03:54:11.156Z,9.40
2019-03-13T03:56:39.943Z,9.60
2019-03-13T03:59:11.281Z,9.70
2019-03-13T04:01:40.053Z,9.60
2019-03-13T04:04:08.914Z,9.70
2019-03-13T04:06:38.520Z,9.80
2019-03-13T04:09:07.366Z,10.00
2019-03-13T04:11:36.107Z,10.20
2019-03-13T04:14:07.756Z,10.00
2019-03-13T04:16:36.521Z,9.70
2019-03-13T04:19:05.869Z,9.40
2019-03-13T04:21:34.608Z,9.30
2019-03-13T04:24:03.377Z,9.20
2019-03-13T04:26:32.711Z,9.20
2019-03-13T04:29:04.103Z,9.50
2019-03-13T04:31:32.879Z,9.60
2019-03-13T04:34:08.448Z,9.40
2019-03-13T04:36:37.183Z,9.20
2019-03-13T04:39:06.342Z,8.90
2019-03-13T04:41:34.999Z,8.70
2019-03-13T04:44:03.604Z,8.60
2019-03-13T04:46:32.292Z,8.50
2019-03-13T04:49:03.609Z,8.50
2019-03-13T04:51:32.423Z,8.50
2019-03-13T04:54:01.191Z,8.50
2019-03-13T04:56:29.845Z,8.60
2019-03-13T04:58:58.611Z,8.60
2019-03-13T05:01:27.341Z,8.70
2019-03-13T05:03:56.155Z,8.60
2019-03-13T05:06:24.893Z,8.60
2019-03-13T05:08:55.020Z,8.60
2019-03-13T05:11:23.822Z,8.60
2019-03-13T05:13:52.486Z,8.40
2019-03-13T05:16:21.139Z,8.40
2019-03-13T05:18:49.862Z,8.60
2019-03-13T05:21:18.566Z,8.70
2019-03-13T05:23:47.206Z,8.90
2019-03-13T05:26:15.924Z,9.10
2019-03-13T05:28:44.675Z,9.20
2019-03-13T05:31:13.435Z,9.30
2019-03-13T05:33:42.153Z,9.30
2019-03-13T05:36:10.918Z,9.30
2019-03-13T05:38:39.582Z,9.20
2019-03-13T05:41:08.280Z,9.10
2019-03-13T05:43:37.053Z,9.10
2019-03-13T05:46:08.308Z,9.00
2019-03-13T05:48:36.927Z,8.80
2019-03-13T05:51:05.620Z,8.60
2019-03-13T05:53:34.169Z,8.60
2019-03-13T05:56:02.931Z,8.50
2019-03-13T05:58:33.319Z,8.60
2019-03-13T06:01:03.702Z,8.50
2019-03-13T06:03:39.867Z,8.60
2019-03-13T06:11:53.097Z,8.40
2019-03-13T06:17:25.591Z,8.40
2019-03-13T06:19:58.236Z,8.40
2019-03-13T06:22:26.982Z,8.20
2019-03-13T06:25:02.266Z,7.90
2019-03-13T06:27:34.608Z,7.80
2019-03-13T06:30:48.796Z,7.60
2019-03-13T06:33:23.442Z,7.60
2019-03-13T06:35:58.061Z,8.00
2019-03-13T06:38:26.711Z,8.40
2019-03-13T06:40:55.515Z,8.60
2019-03-13T06:43:24.153Z,8.90
2019-03-13T06:45:52.875Z,9.10
2019-03-13T06:48:22.009Z,9.40
2019-03-13T06:50:50.726Z,9.20
2019-03-13T06:53:20.527Z,9.30
2019-03-13T06:55:51.922Z,9.30
2019-03-13T06:58:23.426Z,9.20
2019-03-13T07:00:59.533Z,9.20
2019-03-13T07:03:39.151Z,9.30
2019-03-13T07:06:20.059Z,9.50
2019-03-13T07:08:51.622Z,9.40
2019-03-13T07:11:26.270Z,9.40
2019-03-13T07:17:05.307Z,9.40
2019-03-13T07:19:54.195Z,9.50
2019-03-13T07:22:42.831Z,9.40
2019-03-13T07:25:26.041Z,9.60
2019-03-13T07:28:06.568Z,9.80
2019-03-13T07:30:36.955Z,9.80
2019-03-13T07:33:24.226Z,10.20
2019-03-13T07:39:35.878Z,10.80
2019-03-13T07:45:52.905Z,11.30
2019-03-13T07:48:23.495Z,11.20
2019-03-13T07:54:22.569Z,11.20
2019-03-13T08:00:36.586Z,11.40
2019-03-13T08:03:24.641Z,11.50
2019-03-13T08:06:11.191Z,11.50
2019-03-13T08:08:41.473Z,11.40
2019-03-13T08:14:07.909Z,10.70
2019-03-13T08:19:45.424Z,10.10
2019-03-13T08:25:48.340Z,10.00
2019-03-13T08:28:18.663Z,9.80
2019-03-13T08:34:20.631Z,9.90
2019-03-13T08:36:53.362Z,10.20
2019-03-13T08:39:39.618Z,10.30
2019-03-13T08:45:41.697Z,10.60
2019-03-13T08:48:11.948Z,10.40
2019-03-13T08:54:25.651Z,9.40
2019-03-13T08:56:55.218Z,9.10
2019-03-13T08:59:26.054Z,8.80
2019-03-13T09:05:37.522Z,8.80
2019-03-13T09:08:23.841Z,9.00
2019-03-13T09:14:28.143Z,8.90
2019-03-13T09:20:47.204Z,8.80
2019-03-13T09:23:13.434Z,8.70
2019-03-13T09:25:46.475Z,8.80
2019-03-13T09:28:30.514Z,8.80
2019-03-13T09:34:42.204Z,8.80
2019-03-13T09:47:26.982Z,9.00
2019-03-13T09:49:55.976Z,9.40
2019-03-13T10:03:01.264Z,10.40
2019-03-13T10:05:31.692Z,10.60
2019-03-13T10:12:00.646Z,10.80
2019-03-13T10:14:31.045Z,10.70
2019-03-13T10:20:46.420Z,10.90
2019-03-13T10:26:45.173Z,10.50
2019-03-13T10:29:17.947Z,10.20
2019-03-13T10:35:36.697Z,10.40
2019-03-13T10:48:00.159Z,11.30
2019-03-13T10:50:50.360Z,11.30
2019-03-13T10:57:21.814Z,11.60
2019-03-13T11:00:09.342Z,11.60
2019-03-13T11:06:10.397Z,11.60
2019-03-13T11:12:23.994Z,11.70
2019-03-13T11:15:04.004Z,11.50
2019-03-13T11:41:07.646Z,11.50
2019-03-13T11:51:08.554Z,11.50
2019-03-13T11:54:00.160Z,11.60
2019-03-13T11:56:40.614Z,11.70
2019-03-13T11:59:08.128Z,11.70
2019-03-13T12:01:45.573Z,11.70
2019-03-13T12:04:26.336Z,11.70
2019-03-13T12:06:59.099Z,11.60
2019-03-13T12:09:32.194Z,11.50
2019-03-13T12:12:11.138Z,11.50
2019-03-13T12:14:50.142Z,11.50
2019-03-13T12:21:03.706Z,11.40
2019-03-13T12:27:08.625Z,11.60
2019-03-13T12:29:38.867Z,11.50
2019-03-13T12:32:14.921Z,11.40
2019-03-13T12:38:41.478Z,11.40
2019-03-13T12:41:11.648Z,11.50
2019-03-13T12:47:13.742Z,11.70
2019-03-13T12:50:01.975Z,12.00
2019-03-13T12:52:48.303Z,12.20
2019-03-13T12:55:24.228Z,12.40
2019-03-13T13:01:23.626Z,12.30
2019-03-13T13:07:24.731Z,11.90
2019-03-13T13:13:31.841Z,11.80
2019-03-13T13:16:23.701Z,11.70
2019-03-13T13:22:20.948Z,11.70
2019-03-13T13:34:58.720Z,12.30
2019-03-13T13:37:27.427Z,12.90
2019-03-13T13:43:24.902Z,13.60
2019-03-13T13:45:56.939Z,13.90
2019-03-13T13:48:25.563Z,14.10
2019-03-13T13:50:56.316Z,14.40
2019-03-13T13:53:24.689Z,14.60
2019-03-13T13:55:53.251Z,14.10
2019-03-13T13:58:21.986Z,13.50
2019-03-13T14:00:50.924Z,13.70
2019-03-13T14:03:19.596Z,13.80
2019-03-13T14:05:49.866Z,13.70
2019-03-13T14:08:18.716Z,13.70
2019-03-13T14:14:15.824Z,12.70
2019-03-13T14:16:53.477Z,12.90
2019-03-13T14:39:20.413Z,13.50
2019-03-13T14:42:00.996Z,13.50
2019-03-13T14:44:28.500Z,13.50
2019-03-13T14:59:26.348Z,13.20
2019-03-13T15:04:59.041Z,13.20
2019-03-13T15:07:27.470Z,13.20
2019-03-13T15:12:36.330Z,13.10
2019-03-13T15:20:55.800Z,12.80
2019-03-13T15:23:32.515Z,12.60
2019-03-13T15:26:06.834Z,12.60
2019-03-13T15:28:58.621Z,12.60
2019-03-13T15:31:30.424Z,12.60
2019-03-13T15:33:59.118Z,12.30
2019-03-13T15:40:41.490Z,12.50
2019-03-13T15:42:00.946Z,12.60
2019-03-13T15:44:30.928Z,12.80
2019-03-13T15:47:04.628Z,12.80
2019-03-13T15:49:36.102Z,12.80
2019-03-13T15:52:04.791Z,12.80
2019-03-13T15:54:33.402Z,12.70
2019-03-13T15:57:08.321Z,12.70
2019-03-13T15:59:42.734Z,12.60
2019-03-13T16:02:11.655Z,12.60
2019-03-13T16:04:47.133Z,12.70
2019-03-13T16:07:13.198Z,12.50
2019-03-13T16:09:42.032Z,12.30
2019-03-13T16:12:13.349Z,12.30
2019-03-13T16:14:41.901Z,12.20
2019-03-13T16:17:14.169Z,12.20
2019-03-13T16:19:42.566Z,12.10
2019-03-13T16:22:13.122Z,12.10
2019-03-13T16:24:41.942Z,12.10
2019-03-13T16:27:10.637Z,12.10
2019-03-13T16:29:41.729Z,12.10
2019-03-13T16:32:11.304Z,12.20
2019-03-13T16:34:40.023Z,12.30
2019-03-13T16:37:28.024Z,12.20
2019-03-13T16:40:01.430Z,12.20
2019-03-13T16:46:17.905Z,12.20
2019-03-13T16:49:32.396Z,12.00
2019-03-13T16:52:03.716Z,11.90
2019-03-13T16:54:33.288Z,11.60
2019-03-13T16:57:03.149Z,11.10
2019-03-13T17:02:29.044Z,10.80
2019-03-13T17:08:55.122Z,10.80
2019-03-13T17:13:40.549Z,10.80
2019-03-13T17:21:58.185Z,10.70
2019-03-13T17:24:35.565Z,10.70
2019-03-13T17:27:32.646Z,10.60
2019-03-13T17:29:46.697Z,10.60
2019-03-13T17:32:16.760Z,10.50
2019-03-13T17:34:45.588Z,10.40
2019-03-13T17:37:14.616Z,10.40
2019-03-13T17:39:45.087Z,10.50
2019-03-13T17:42:28.666Z,10.60
2019-03-13T17:50:57.740Z,10.30
2019-03-13T17:53:25.308Z,10.40
2019-03-13T18:06:35.281Z,10.30
2019-03-13T18:11:04.408Z,10.20
2019-03-13T18:18:12.517Z,10.10
2019-03-13T18:20:19.075Z,10.10
2019-03-13T18:22:37.493Z,10.20
2019-03-13T18:25:26.524Z,10.30
2019-03-13T18:27:57.974Z,10.30
2019-03-13T18:33:33.894Z,10.40
2019-03-13T18:36:04.357Z,10.50
2019-03-13T18:38:36.735Z,10.70
2019-03-13T18:41:09.464Z,10.70
2019-03-13T18:43:56.811Z,10.80
2019-03-13T18:47:12.168Z,10.90
2019-03-13T18:52:43.499Z,11.00
2019-03-13T19:44:20.151Z,10.20
2019-03-13T19:53:56.900Z,9.70
2019-03-13T19:57:03.501Z,9.70
2019-03-13T20:48:50.761Z,10.00
2019-03-13T20:51:38.006Z,9.90
2019-03-13T21:10:36.048Z,10.10
2019-03-13T21:48:41.378Z,9.70
2019-03-13T21:51:10.039Z,9.60
2019-03-13T21:53:38.857Z,9.60
2019-03-13T21:56:07.740Z,9.50
2019-03-13T21:58:40.374Z,9.50
2019-03-13T22:01:19.350Z,9.50
2019-03-13T22:03:44.328Z,9.40
2019-03-13T22:06:13.319Z,9.40
2019-03-13T22:08:56.773Z,9.40
2019-03-13T22:11:27.098Z,9.40
2019-03-13T22:13:57.446Z,9.40
2019-03-13T22:16:29.249Z,9.50
2019-03-13T22:18:57.891Z,9.40
2019-03-13T22:21:31.088Z,9.40
2019-03-13T22:23:59.661Z,9.40
2019-03-13T22:26:30.336Z,9.40
2019-03-13T22:28:58.793Z,9.30
2019-03-13T22:31:27.481Z,9.30
2019-03-13T22:33:56.238Z,9.60
2019-03-13T22:36:25.101Z,9.60
2019-03-13T22:38:53.827Z,9.60
2019-03-13T22:41:22.559Z,9.70
2019-03-13T22:43:51.360Z,9.90
2019-03-13T22:46:20.137Z,10.00
2019-03-13T22:48:58.157Z,10.20
2019-03-13T22:51:19.233Z,10.10
2019-03-13T22:53:47.963Z,9.80
2019-03-13T22:56:16.720Z,9.50
2019-03-13T22:58:45.439Z,9.70
2019-03-13T23:01:15.756Z,9.70
2019-03-13T23:03:45.104Z,9.90
2019-03-13T23:06:13.883Z,9.80
2019-03-13T23:08:42.790Z,9.70
2019-03-13T23:11:11.720Z,9.50
2019-03-13T23:13:40.475Z,9.60
2019-03-13T23:16:09.299Z,9.90
2019-03-13T23:18:37.992Z,9.80
2019-03-13T23:21:06.693Z,9.90
2019-03-13T23:23:35.388Z,9.60
2019-03-13T23:26:04.151Z,9.40
2019-03-13T23:28:32.929Z,9.40
2019-03-13T23:31:03.260Z,9.30
2019-03-13T23:33:33.295Z,9.10
2019-03-13T23:36:02.099Z,9.10
2019-03-13T23:38:30.726Z,9.00
2019-03-13T23:41:00.541Z,8.90
2019-03-13T23:43:29.243Z,8.90
2019-03-13T23:45:58.142Z,9.10
2019-03-13T23:48:27.013Z,9.00
2019-03-13T23:50:55.894Z,9.00
2019-03-13T23:53:24.621Z,8.90
2019-03-13T23:55:53.250Z,8.90
2019-03-13T23:58:21.898Z,8.90
